Terminal Aerodrome Forecast
Issued by NWS

Home | Current Version | Previous Version | Text Only | Print | Product List | Glossary On
Versions: 1 2 3 4 5 6 7 8 9 10 11 12 13 14 15 16
000
FTUS42 KTBW 242118 AAA
TAFPGD
TAF AMD
KPGD 242118Z 2421/2518 29019G25KT P6SM FEW040
     FM250100 28010G15KT P6SM FEW040
     FM250300 28006KT P6SM FEW030
     FM251600 28010G15KT P6SM SCT035=

USA.gov is the U.S. government's official web portal to all federal, state and local government web resources and services.